sensor_id;sensor_type;location;lat;lon;timestamp;P1;durP1;ratioP1;P2;durP2;ratioP2
8946;SDS011;4508;48.790;9.028;2023-01-20T00:01:01;11.30;;;10.10;;
8946;SDS011;4508;48.790;9.028;2023-01-20T00:03:30;10.23;;;9.18;;
8946;SDS011;4508;48.790;9.028;2023-01-20T00:05:56;10.70;;;9.60;;
8946;SDS011;4508;48.790;9.028;2023-01-20T00:08:23;12.10;;;10.80;;
8946;SDS011;4508;48.790;9.028;2023-01-20T00:10:50;12.50;;;11.20;;
8946;SDS011;4508;48.790;9.028;2023-01-20T00:13:16;10.33;;;9.30;;
8946;SDS011;4508;48.790;9.028;2023-01-20T00:15:43;10.77;;;9.43;;
8946;SDS011;4508;48.790;9.028;2023-01-20T00:18:10;10.88;;;9.77;;
8946;SDS011;4508;48.790;9.028;2023-01-20T00:20:38;11.68;;;10.48;;
8946;SDS011;4508;48.790;9.028;2023-01-20T00:23:04;10.77;;;9.70;;
8946;SDS011;4508;48.790;9.028;2023-01-20T00:25:33;11.13;;;9.75;;
8946;SDS011;4508;48.790;9.028;2023-01-20T00:28:01;11.17;;;10.07;;
8946;SDS011;4508;48.790;9.028;2023-01-20T00:30:27;11.07;;;9.95;;
8946;SDS011;4508;48.790;9.028;2023-01-20T00:32:54;12.57;;;10.95;;
8946;SDS011;4508;48.790;9.028;2023-01-20T00:35:21;11.70;;;10.50;;
8946;SDS011;4508;48.790;9.028;2023-01-20T00:37:49;11.20;;;10.13;;
8946;SDS011;4508;48.790;9.028;2023-01-20T00:40:16;11.20;;;10.10;;
8946;SDS011;4508;48.790;9.028;2023-01-20T00:42:42;11.25;;;10.15;;
8946;SDS011;4508;48.790;9.028;2023-01-20T00:45:09;11.30;;;10.20;;
8946;SDS011;4508;48.790;9.028;2023-01-20T00:47:36;11.90;;;10.25;;
8946;SDS011;4508;48.790;9.028;2023-01-20T00:50:03;12.40;;;11.10;;
8946;SDS011;4508;48.790;9.028;2023-01-20T00:52:30;11.75;;;10.32;;
8946;SDS011;4508;48.790;9.028;2023-01-20T00:54:58;11.02;;;9.93;;
8946;SDS011;4508;48.790;9.028;2023-01-20T00:57:25;13.00;;;10.55;;
8946;SDS011;4508;48.790;9.028;2023-01-20T00:59:52;11.73;;;10.52;;
8946;SDS011;4508;48.790;9.028;2023-01-20T01:02:18;11.02;;;9.93;;
8946;SDS011;4508;48.790;9.028;2023-01-20T01:04:47;10.50;;;9.50;;
8946;SDS011;4508;48.790;9.028;2023-01-20T01:07:14;11.10;;;10.00;;
8946;SDS011;4508;48.790;9.028;2023-01-20T01:09:41;10.93;;;9.82;;
8946;SDS011;4508;48.790;9.028;2023-01-20T01:12:09;10.65;;;9.55;;
8946;SDS011;4508;48.790;9.028;2023-01-20T01:14:36;10.63;;;9.30;;
8946;SDS011;4508;48.790;9.028;2023-01-20T01:17:02;9.70;;;8.70;;
8946;SDS011;4508;48.790;9.028;2023-01-20T01:19:29;10.13;;;9.10;;
8946;SDS011;4508;48.790;9.028;2023-01-20T01:21:56;11.32;;;10.20;;
8946;SDS011;4508;48.790;9.028;2023-01-20T01:24:22;10.52;;;9.10;;
8946;SDS011;4508;48.790;9.028;2023-01-20T01:26:51;9.82;;;8.88;;
8946;SDS011;4508;48.790;9.028;2023-01-20T01:29:19;11.07;;;9.35;;
8946;SDS011;4508;48.790;9.028;2023-01-20T01:31:46;10.10;;;9.10;;
8946;SDS011;4508;48.790;9.028;2023-01-20T01:34:13;10.00;;;9.00;;
8946;SDS011;4508;48.790;9.028;2023-01-20T01:36:40;10.17;;;8.93;;
8946;SDS011;4508;48.790;9.028;2023-01-20T01:39:06;8.70;;;7.90;;
8946;SDS011;4508;48.790;9.028;2023-01-20T01:41:33;7.63;;;6.95;;
8946;SDS011;4508;48.790;9.028;2023-01-20T01:44:01;7.22;;;6.60;;
8946;SDS011;4508;48.790;9.028;2023-01-20T01:46:31;7.43;;;6.73;;
8946;SDS011;4508;48.790;9.028;2023-01-20T01:48:58;7.75;;;7.05;;
8946;SDS011;4508;48.790;9.028;2023-01-20T01:51:27;7.93;;;7.22;;
8946;SDS011;4508;48.790;9.028;2023-01-20T01:53:58;7.80;;;7.10;;
8946;SDS011;4508;48.790;9.028;2023-01-20T01:56:28;8.40;;;7.60;;
8946;SDS011;4508;48.790;9.028;2023-01-20T01:58:56;7.68;;;6.97;;
8946;SDS011;4508;48.790;9.028;2023-01-20T02:01:26;7.90;;;7.20;;
8946;SDS011;4508;48.790;9.028;2023-01-20T02:03:56;7.18;;;6.47;;
8946;SDS011;4508;48.790;9.028;2023-01-20T02:06:26;7.45;;;6.75;;
8946;SDS011;4508;48.790;9.028;2023-01-20T02:08:58;9.60;;;8.70;;
8946;SDS011;4508;48.790;9.028;2023-01-20T02:11:26;11.93;;;10.57;;
8946;SDS011;4508;48.790;9.028;2023-01-20T02:13:53;11.53;;;9.27;;
8946;SDS011;4508;48.790;9.028;2023-01-20T02:16:23;10.40;;;9.30;;
8946;SDS011;4508;48.790;9.028;2023-01-20T02:19:04;9.27;;;8.38;;
8946;SDS011;4508;48.790;9.028;2023-01-20T02:27:58;8.38;;;7.57;;
8946;SDS011;4508;48.790;9.028;2023-01-20T02:33:41;7.60;;;6.90;;
8946;SDS011;4508;48.790;9.028;2023-01-20T02:36:14;7.90;;;7.20;;
8946;SDS011;4508;48.790;9.028;2023-01-20T02:38:52;7.78;;;7.07;;
8946;SDS011;4508;48.790;9.028;2023-01-20T02:41:22;7.90;;;7.20;;
8946;SDS011;4508;48.790;9.028;2023-01-20T02:43:56;7.55;;;6.85;;
8946;SDS011;4508;48.790;9.028;2023-01-20T02:46:29;7.88;;;7.18;;
8946;SDS011;4508;48.790;9.028;2023-01-20T02:49:02;7.90;;;7.20;;
8946;SDS011;4508;48.790;9.028;2023-01-20T02:51:39;7.93;;;7.23;;
8946;SDS011;4508;48.790;9.028;2023-01-20T02:54:09;7.97;;;7.28;;
8946;SDS011;4508;48.790;9.028;2023-01-20T02:56:40;7.60;;;6.90;;
8946;SDS011;4508;48.790;9.028;2023-01-20T02:59:09;7.97;;;7.22;;
8946;SDS011;4508;48.790;9.028;2023-01-20T03:01:38;7.88;;;7.18;;
8946;SDS011;4508;48.790;9.028;2023-01-20T03:04:10;7.55;;;6.95;;
8946;SDS011;4508;48.790;9.028;2023-01-20T03:06:41;7.70;;;7.00;;
8946;SDS011;4508;48.790;9.028;2023-01-20T03:09:11;7.30;;;6.60;;
8946;SDS011;4508;48.790;9.028;2023-01-20T03:11:42;7.78;;;7.07;;
8946;SDS011;4508;48.790;9.028;2023-01-20T03:14:12;8.30;;;7.60;;
8946;SDS011;4508;48.790;9.028;2023-01-20T03:16:40;7.95;;;7.25;;
8946;SDS011;4508;48.790;9.028;2023-01-20T03:19:07;7.93;;;7.22;;
8946;SDS011;4508;48.790;9.028;2023-01-20T03:21:36;8.43;;;7.72;;
8946;SDS011;4508;48.790;9.028;2023-01-20T03:24:03;8.68;;;7.88;;
8946;SDS011;4508;48.790;9.028;2023-01-20T03:26:30;8.40;;;7.60;;
8946;SDS011;4508;48.790;9.028;2023-01-20T03:28:58;8.30;;;7.43;;
8946;SDS011;4508;48.790;9.028;2023-01-20T03:31:29;8.48;;;7.78;;
8946;SDS011;4508;48.790;9.028;2023-01-20T03:34:01;8.85;;;8.05;;
8946;SDS011;4508;48.790;9.028;2023-01-20T03:36:32;8.25;;;7.53;;
8946;SDS011;4508;48.790;9.028;2023-01-20T03:38:59;8.52;;;7.72;;
8946;SDS011;4508;48.790;9.028;2023-01-20T03:41:29;8.30;;;7.55;;
8946;SDS011;4508;48.790;9.028;2023-01-20T03:44:05;8.90;;;8.00;;
8946;SDS011;4508;48.790;9.028;2023-01-20T03:46:38;8.63;;;7.93;;
8946;SDS011;4508;48.790;9.028;2023-01-20T03:49:12;8.27;;;7.57;;
8946;SDS011;4508;48.790;9.028;2023-01-20T03:51:48;8.35;;;7.63;;
8946;SDS011;4508;48.790;9.028;2023-01-20T03:54:22;8.98;;;8.18;;
8946;SDS011;4508;48.790;9.028;2023-01-20T03:56:55;8.90;;;8.10;;
8946;SDS011;4508;48.790;9.028;2023-01-20T03:59:28;9.43;;;8.52;;
8946;SDS011;4508;48.790;9.028;2023-01-20T04:01:59;9.95;;;8.95;;
8946;SDS011;4508;48.790;9.028;2023-01-20T04:04:29;10.43;;;9.53;;
8946;SDS011;4508;48.790;9.028;2023-01-20T04:07:00;9.80;;;8.90;;
8946;SDS011;4508;48.790;9.028;2023-01-20T04:09:29;9.48;;;8.57;;
8946;SDS011;4508;48.790;9.028;2023-01-20T04:12:00;10.32;;;9.32;;
8946;SDS011;4508;48.790;9.028;2023-01-20T04:14:26;10.00;;;9.10;;
8946;SDS011;4508;48.790;9.028;2023-01-20T04:16:55;10.20;;;9.30;;
8946;SDS011;4508;48.790;9.028;2023-01-20T04:19:23;10.63;;;9.73;;
8946;SDS011;4508;48.790;9.028;2023-01-20T04:21:51;10.82;;;9.82;;
8946;SDS011;4508;48.790;9.028;2023-01-20T04:24:25;10.90;;;9.90;;
8946;SDS011;4508;48.790;9.028;2023-01-20T04:26:56;11.30;;;10.27;;
8946;SDS011;4508;48.790;9.028;2023-01-20T04:29:23;11.20;;;10.20;;
8946;SDS011;4508;48.790;9.028;2023-01-20T04:31:49;11.10;;;10.10;;
8946;SDS011;4508;48.790;9.028;2023-01-20T04:34:22;11.95;;;10.82;;
8946;SDS011;4508;48.790;9.028;2023-01-20T04:36:49;12.20;;;11.10;;
8946;SDS011;4508;48.790;9.028;2023-01-20T04:39:15;12.10;;;11.00;;
8946;SDS011;4508;48.790;9.028;2023-01-20T04:41:43;11.32;;;10.30;;
8946;SDS011;4508;48.790;9.028;2023-01-20T04:44:11;12.02;;;10.93;;
8946;SDS011;4508;48.790;9.028;2023-01-20T04:46:37;12.07;;;10.98;;
8946;SDS011;4508;48.790;9.028;2023-01-20T04:49:04;11.32;;;10.32;;
8946;SDS011;4508;48.790;9.028;2023-01-20T04:51:31;11.60;;;10.50;;
8946;SDS011;4508;48.790;9.028;2023-01-20T04:53:58;12.07;;;10.97;;
8946;SDS011;4508;48.790;9.028;2023-01-20T04:56:25;12.05;;;10.95;;
8946;SDS011;4508;48.790;9.028;2023-01-20T04:58:53;11.18;;;10.18;;
8946;SDS011;4508;48.790;9.028;2023-01-20T05:01:19;10.85;;;9.85;;
8946;SDS011;4508;48.790;9.028;2023-01-20T05:03:46;11.00;;;10.00;;
8946;SDS011;4508;48.790;9.028;2023-01-20T05:06:13;11.55;;;10.45;;
8946;SDS011;4508;48.790;9.028;2023-01-20T05:08:40;10.82;;;9.82;;
8946;SDS011;4508;48.790;9.028;2023-01-20T05:11:07;10.30;;;9.40;;
8946;SDS011;4508;48.790;9.028;2023-01-20T05:13:33;10.70;;;9.77;;
8946;SDS011;4508;48.790;9.028;2023-01-20T05:16:04;12.17;;;11.07;;
8946;SDS011;4508;48.790;9.028;2023-01-20T05:18:32;11.05;;;9.95;;
8946;SDS011;4508;48.790;9.028;2023-01-20T05:20:59;11.23;;;10.13;;
8946;SDS011;4508;48.790;9.028;2023-01-20T05:23:25;12.02;;;10.93;;
8946;SDS011;4508;48.790;9.028;2023-01-20T05:25:52;11.68;;;10.57;;
8946;SDS011;4508;48.790;9.028;2023-01-20T05:28:19;10.95;;;9.90;;
8946;SDS011;4508;48.790;9.028;2023-01-20T05:30:46;11.82;;;10.70;;
8946;SDS011;4508;48.790;9.028;2023-01-20T05:33:15;11.50;;;10.50;;
8946;SDS011;4508;48.790;9.028;2023-01-20T05:35:42;11.60;;;10.50;;
8946;SDS011;4508;48.790;9.028;2023-01-20T05:38:08;11.80;;;10.70;;
8946;SDS011;4508;48.790;9.028;2023-01-20T05:40:35;11.10;;;10.10;;
8946;SDS011;4508;48.790;9.028;2023-01-20T05:43:03;10.05;;;9.13;;
8946;SDS011;4508;48.790;9.028;2023-01-20T05:45:30;10.10;;;9.25;;
8946;SDS011;4508;48.790;9.028;2023-01-20T05:47:57;10.05;;;9.20;;
8946;SDS011;4508;48.790;9.028;2023-01-20T05:50:27;10.00;;;9.10;;
8946;SDS011;4508;48.790;9.028;2023-01-20T05:52:54;8.70;;;7.90;;
8946;SDS011;4508;48.790;9.028;2023-01-20T05:55:21;8.50;;;7.70;;
8946;SDS011;4508;48.790;9.028;2023-01-20T05:57:47;8.98;;;8.07;;
8946;SDS011;4508;48.790;9.028;2023-01-20T06:00:14;8.05;;;7.30;;
8946;SDS011;4508;48.790;9.028;2023-01-20T06:02:42;9.60;;;8.10;;
8946;SDS011;4508;48.790;9.028;2023-01-20T06:05:09;9.18;;;8.27;;
8946;SDS011;4508;48.790;9.028;2023-01-20T06:07:39;9.60;;;8.70;;
8946;SDS011;4508;48.790;9.028;2023-01-20T06:10:06;8.88;;;8.02;;
8946;SDS011;4508;48.790;9.028;2023-01-20T06:12:33;10.32;;;9.35;;
8946;SDS011;4508;48.790;9.028;2023-01-20T06:15:00;10.90;;;9.90;;
8946;SDS011;4508;48.790;9.028;2023-01-20T06:17:27;11.38;;;10.20;;
8946;SDS011;4508;48.790;9.028;2023-01-20T06:19:53;9.20;;;8.40;;
8946;SDS011;4508;48.790;9.028;2023-01-20T06:22:20;9.30;;;8.30;;
8946;SDS011;4508;48.790;9.028;2023-01-20T06:24:48;10.27;;;9.27;;
8946;SDS011;4508;48.790;9.028;2023-01-20T06:27:16;10.23;;;9.23;;
8946;SDS011;4508;48.790;9.028;2023-01-20T06:29:42;13.15;;;11.85;;
8946;SDS011;4508;48.790;9.028;2023-01-20T06:32:12;14.23;;;12.93;;
8946;SDS011;4508;48.790;9.028;2023-01-20T06:34:39;13.75;;;12.45;;
8946;SDS011;4508;48.790;9.028;2023-01-20T06:37:05;13.10;;;11.90;;
8946;SDS011;4508;48.790;9.028;2023-01-20T06:39:32;11.77;;;10.68;;
8946;SDS011;4508;48.790;9.028;2023-01-20T06:42:00;11.30;;;10.20;;
8946;SDS011;4508;48.790;9.028;2023-01-20T06:44:27;10.85;;;9.85;;
8946;SDS011;4508;48.790;9.028;2023-01-20T06:46:54;10.82;;;9.80;;
8946;SDS011;4508;48.790;9.028;2023-01-20T06:49:22;9.93;;;8.85;;
8946;SDS011;4508;48.790;9.028;2023-01-20T06:51:48;10.40;;;9.40;;
8946;SDS011;4508;48.790;9.028;2023-01-20T06:54:15;10.63;;;9.63;;
8946;SDS011;4508;48.790;9.028;2023-01-20T06:56:42;10.35;;;9.35;;
8946;SDS011;4508;48.790;9.028;2023-01-20T06:59:10;9.85;;;8.82;;
8946;SDS011;4508;48.790;9.028;2023-01-20T07:01:38;10.45;;;9.35;;
8946;SDS011;4508;48.790;9.028;2023-01-20T07:04:05;9.93;;;9.02;;
8946;SDS011;4508;48.790;9.028;2023-01-20T07:06:33;10.23;;;9.27;;
8946;SDS011;4508;48.790;9.028;2023-01-20T07:09:02;10.40;;;9.50;;
8946;SDS011;4508;48.790;9.028;2023-01-20T07:11:30;10.38;;;9.38;;
8946;SDS011;4508;48.790;9.028;2023-01-20T07:13:59;10.35;;;9.35;;
8946;SDS011;4508;48.790;9.028;2023-01-20T07:16:27;10.40;;;9.40;;
8946;SDS011;4508;48.790;9.028;2023-01-20T07:18:54;10.60;;;9.60;;
8946;SDS011;4508;48.790;9.028;2023-01-20T07:21:21;10.03;;;9.10;;
8946;SDS011;4508;48.790;9.028;2023-01-20T07:23:48;10.32;;;9.38;;
8946;SDS011;4508;48.790;9.028;2023-01-20T07:26:15;10.20;;;9.20;;
8946;SDS011;4508;48.790;9.028;2023-01-20T07:28:44;10.65;;;8.77;;
8946;SDS011;4508;48.790;9.028;2023-01-20T07:31:12;10.77;;;9.70;;
8946;SDS011;4508;48.790;9.028;2023-01-20T07:33:41;9.83;;;8.83;;
8946;SDS011;4508;48.790;9.028;2023-01-20T07:36:09;10.13;;;9.20;;
8946;SDS011;4508;48.790;9.028;2023-01-20T07:38:37;10.70;;;9.70;;
8946;SDS011;4508;48.790;9.028;2023-01-20T07:41:05;9.88;;;9.02;;
8946;SDS011;4508;48.790;9.028;2023-01-20T07:43:34;10.63;;;9.60;;
8946;SDS011;4508;48.790;9.028;2023-01-20T07:46:02;9.90;;;8.93;;
8946;SDS011;4508;48.790;9.028;2023-01-20T07:48:30;10.15;;;9.05;;
8946;SDS011;4508;48.790;9.028;2023-01-20T07:50:59;9.88;;;8.93;;
8946;SDS011;4508;48.790;9.028;2023-01-20T07:53:29;10.02;;;9.05;;
8946;SDS011;4508;48.790;9.028;2023-01-20T07:55:59;9.80;;;8.80;;
8946;SDS011;4508;48.790;9.028;2023-01-20T07:58:26;9.80;;;8.90;;
8946;SDS011;4508;48.790;9.028;2023-01-20T08:00:53;9.90;;;8.90;;
8946;SDS011;4508;48.790;9.028;2023-01-20T08:03:20;10.20;;;9.30;;
8946;SDS011;4508;48.790;9.028;2023-01-20T08:05:47;9.13;;;8.33;;
8946;SDS011;4508;48.790;9.028;2023-01-20T08:08:15;9.35;;;8.45;;
8946;SDS011;4508;48.790;9.028;2023-01-20T08:10:42;10.13;;;9.23;;
8946;SDS011;4508;48.790;9.028;2023-01-20T08:13:08;9.82;;;8.90;;
8946;SDS011;4508;48.790;9.028;2023-01-20T08:15:35;9.90;;;8.90;;
8946;SDS011;4508;48.790;9.028;2023-01-20T08:18:02;10.45;;;9.45;;
8946;SDS011;4508;48.790;9.028;2023-01-20T08:20:28;10.50;;;9.50;;
8946;SDS011;4508;48.790;9.028;2023-01-20T08:22:55;10.48;;;9.40;;
8946;SDS011;4508;48.790;9.028;2023-01-20T08:25:23;9.90;;;8.90;;
8946;SDS011;4508;48.790;9.028;2023-01-20T08:27:50;9.95;;;8.93;;
8946;SDS011;4508;48.790;9.028;2023-01-20T08:30:17;9.57;;;8.68;;
8946;SDS011;4508;48.790;9.028;2023-01-20T08:32:44;9.97;;;9.07;;
8946;SDS011;4508;48.790;9.028;2023-01-20T08:35:10;9.23;;;8.43;;
8946;SDS011;4508;48.790;9.028;2023-01-20T08:37:37;9.90;;;8.95;;
8946;SDS011;4508;48.790;9.028;2023-01-20T08:40:04;10.38;;;9.38;;
8946;SDS011;4508;48.790;9.028;2023-01-20T08:42:34;9.80;;;8.80;;
8946;SDS011;4508;48.790;9.028;2023-01-20T08:45:02;9.48;;;8.52;;
8946;SDS011;4508;48.790;9.028;2023-01-20T08:47:30;9.50;;;8.60;;
8946;SDS011;4508;48.790;9.028;2023-01-20T08:49:56;8.90;;;8.00;;
8946;SDS011;4508;48.790;9.028;2023-01-20T08:52:23;7.93;;;7.13;;
8946;SDS011;4508;48.790;9.028;2023-01-20T08:54:50;8.10;;;7.40;;
8946;SDS011;4508;48.790;9.028;2023-01-20T08:57:17;8.45;;;7.55;;
8946;SDS011;4508;48.790;9.028;2023-01-20T08:59:46;7.70;;;7.00;;
8946;SDS011;4508;48.790;9.028;2023-01-20T09:02:14;7.57;;;6.97;;
8946;SDS011;4508;48.790;9.028;2023-01-20T09:04:41;6.88;;;6.22;;
8946;SDS011;4508;48.790;9.028;2023-01-20T09:07:09;6.90;;;6.30;;
8946;SDS011;4508;48.790;9.028;2023-01-20T09:09:36;7.40;;;6.60;;
8946;SDS011;4508;48.790;9.028;2023-01-20T09:12:03;7.45;;;6.68;;
8946;SDS011;4508;48.790;9.028;2023-01-20T09:14:31;7.50;;;6.80;;
8946;SDS011;4508;48.790;9.028;2023-01-20T09:16:59;7.80;;;7.10;;
8946;SDS011;4508;48.790;9.028;2023-01-20T09:19:26;7.80;;;7.10;;
8946;SDS011;4508;48.790;9.028;2023-01-20T09:21:53;6.90;;;6.20;;
8946;SDS011;4508;48.790;9.028;2023-01-20T09:24:20;6.90;;;6.30;;
8946;SDS011;4508;48.790;9.028;2023-01-20T09:26:48;6.70;;;6.00;;
8946;SDS011;4508;48.790;9.028;2023-01-20T09:29:16;7.22;;;6.30;;
8946;SDS011;4508;48.790;9.028;2023-01-20T09:31:47;6.38;;;5.80;;
8946;SDS011;4508;48.790;9.028;2023-01-20T09:34:16;6.60;;;5.97;;
8946;SDS011;4508;48.790;9.028;2023-01-20T09:36:48;5.67;;;4.90;;
8946;SDS011;4508;48.790;9.028;2023-01-20T09:39:15;5.40;;;4.90;;
8946;SDS011;4508;48.790;9.028;2023-01-20T09:42:01;6.20;;;5.60;;
8946;SDS011;4508;48.790;9.028;2023-01-20T09:45:08;6.57;;;5.20;;
8946;SDS011;4508;48.790;9.028;2023-01-20T09:47:48;6.18;;;5.63;;
8946;SDS011;4508;48.790;9.028;2023-01-20T09:53:23;5.15;;;4.65;;
8946;SDS011;4508;48.790;9.028;2023-01-20T09:56:00;6.00;;;5.27;;
8946;SDS011;4508;48.790;9.028;2023-01-20T09:58:31;5.55;;;4.63;;
8946;SDS011;4508;48.790;9.028;2023-01-20T10:01:03;5.68;;;5.13;;
8946;SDS011;4508;48.790;9.028;2023-01-20T10:03:36;5.20;;;4.70;;
8946;SDS011;4508;48.790;9.028;2023-01-20T10:06:12;4.93;;;4.50;;
8946;SDS011;4508;48.790;9.028;2023-01-20T10:08:51;5.22;;;4.72;;
8946;SDS011;4508;48.790;9.028;2023-01-20T10:11:21;5.15;;;4.32;;
8946;SDS011;4508;48.790;9.028;2023-01-20T10:13:52;5.00;;;4.50;;
8946;SDS011;4508;48.790;9.028;2023-01-20T10:16:26;2.70;;;2.50;;
8946;SDS011;4508;48.790;9.028;2023-01-20T10:18:59;2.42;;;2.22;;
8946;SDS011;4508;48.790;9.028;2023-01-20T10:21:33;2.88;;;2.60;;
8946;SDS011;4508;48.790;9.028;2023-01-20T10:24:03;3.20;;;2.75;;
8946;SDS011;4508;48.790;9.028;2023-01-20T10:26:35;3.28;;;2.78;;
8946;SDS011;4508;48.790;9.028;2023-01-20T10:29:10;2.70;;;2.50;;
8946;SDS011;4508;48.790;9.028;2023-01-20T10:31:43;2.60;;;2.40;;
8946;SDS011;4508;48.790;9.028;2023-01-20T10:34:16;2.97;;;2.50;;
8946;SDS011;4508;48.790;9.028;2023-01-20T10:36:49;2.92;;;2.50;;
8946;SDS011;4508;48.790;9.028;2023-01-20T10:39:25;2.53;;;2.33;;
8946;SDS011;4508;48.790;9.028;2023-01-20T10:41:56;3.37;;;2.60;;
8946;SDS011;4508;48.790;9.028;2023-01-20T10:44:31;3.10;;;2.60;;
8946;SDS011;4508;48.790;9.028;2023-01-20T10:47:03;2.95;;;2.50;;
8946;SDS011;4508;48.790;9.028;2023-01-20T10:49:57;4.25;;;2.70;;
8946;SDS011;4508;48.790;9.028;2023-01-20T10:52:47;3.35;;;2.70;;
8946;SDS011;4508;48.790;9.028;2023-01-20T10:55:29;4.22;;;2.80;;
8946;SDS011;4508;48.790;9.028;2023-01-20T10:58:08;4.47;;;2.80;;
8946;SDS011;4508;48.790;9.028;2023-01-20T11:00:41;4.18;;;3.00;;
8946;SDS011;4508;48.790;9.028;2023-01-20T11:03:10;3.30;;;2.50;;
8946;SDS011;4508;48.790;9.028;2023-01-20T11:05:40;4.20;;;2.70;;
8946;SDS011;4508;48.790;9.028;2023-01-20T11:08:09;3.92;;;2.85;;
8946;SDS011;4508;48.790;9.028;2023-01-20T11:10:40;2.70;;;2.43;;
8946;SDS011;4508;48.790;9.028;2023-01-20T11:13:07;3.97;;;2.70;;
8946;SDS011;4508;48.790;9.028;2023-01-20T11:15:36;3.67;;;2.80;;
8946;SDS011;4508;48.790;9.028;2023-01-20T11:20:55;3.42;;;2.75;;
8946;SDS011;4508;48.790;9.028;2023-01-20T11:23:29;3.90;;;2.75;;
8946;SDS011;4508;48.790;9.028;2023-01-20T11:26:02;3.25;;;2.60;;
8946;SDS011;4508;48.790;9.028;2023-01-20T11:28:43;3.40;;;2.50;;
8946;SDS011;4508;48.790;9.028;2023-01-20T11:31:14;3.20;;;2.55;;
8946;SDS011;4508;48.790;9.028;2023-01-20T11:33:49;3.10;;;2.60;;
8946;SDS011;4508;48.790;9.028;2023-01-20T11:36:20;3.42;;;2.70;;
8946;SDS011;4508;48.790;9.028;2023-01-20T11:38:51;2.92;;;2.33;;
8946;SDS011;4508;48.790;9.028;2023-01-20T11:41:20;2.87;;;2.30;;
8946;SDS011;4508;48.790;9.028;2023-01-20T11:43:49;3.72;;;2.53;;
8946;SDS011;4508;48.790;9.028;2023-01-20T11:46:21;3.33;;;2.47;;
8946;SDS011;4508;48.790;9.028;2023-01-20T11:49:05;2.83;;;2.30;;
8946;SDS011;4508;48.790;9.028;2023-01-20T11:51:46;3.38;;;2.45;;
8946;SDS011;4508;48.790;9.028;2023-01-20T11:54:16;3.28;;;2.40;;
8946;SDS011;4508;48.790;9.028;2023-01-20T11:56:44;2.50;;;2.30;;
8946;SDS011;4508;48.790;9.028;2023-01-20T11:59:17;3.40;;;2.42;;
8946;SDS011;4508;48.790;9.028;2023-01-20T12:01:48;3.20;;;2.20;;
8946;SDS011;4508;48.790;9.028;2023-01-20T12:04:19;3.28;;;2.10;;
8946;SDS011;4508;48.790;9.028;2023-01-20T12:06:59;3.47;;;2.00;;
8946;SDS011;4508;48.790;9.028;2023-01-20T12:09:30;2.60;;;2.10;;
8946;SDS011;4508;48.790;9.028;2023-01-20T12:12:02;2.20;;;1.88;;
8946;SDS011;4508;48.790;9.028;2023-01-20T12:14:36;2.63;;;2.00;;
8946;SDS011;4508;48.790;9.028;2023-01-20T12:19:57;3.53;;;2.20;;
8946;SDS011;4508;48.790;9.028;2023-01-20T12:22:33;2.53;;;2.10;;
8946;SDS011;4508;48.790;9.028;2023-01-20T12:25:15;3.80;;;2.00;;
8946;SDS011;4508;48.790;9.028;2023-01-20T12:27:50;2.20;;;2.00;;
8946;SDS011;4508;48.790;9.028;2023-01-20T12:33:22;3.08;;;2.10;;
8946;SDS011;4508;48.790;9.028;2023-01-20T12:35:59;3.25;;;2.08;;
8946;SDS011;4508;48.790;9.028;2023-01-20T12:38:56;3.05;;;1.95;;
8946;SDS011;4508;48.790;9.028;2023-01-20T12:41:42;3.80;;;2.40;;
8946;SDS011;4508;48.790;9.028;2023-01-20T12:44:22;3.03;;;2.30;;
8946;SDS011;4508;48.790;9.028;2023-01-20T12:46:56;3.58;;;2.10;;
8946;SDS011;4508;48.790;9.028;2023-01-20T12:49:40;3.42;;;2.17;;
8946;SDS011;4508;48.790;9.028;2023-01-20T12:52:21;2.58;;;1.80;;
8946;SDS011;4508;48.790;9.028;2023-01-20T12:55:15;3.95;;;1.83;;
8946;SDS011;4508;48.790;9.028;2023-01-20T12:57:54;2.00;;;1.80;;
8946;SDS011;4508;48.790;9.028;2023-01-20T13:00:39;3.20;;;1.90;;
8946;SDS011;4508;48.790;9.028;2023-01-20T13:03:21;3.63;;;3.25;;
8946;SDS011;4508;48.790;9.028;2023-01-20T13:05:59;3.95;;;3.03;;
8946;SDS011;4508;48.790;9.028;2023-01-20T13:08:35;4.40;;;3.05;;
8946;SDS011;4508;48.790;9.028;2023-01-20T13:11:07;4.47;;;3.20;;
8946;SDS011;4508;48.790;9.028;2023-01-20T13:13:41;5.07;;;3.10;;
8946;SDS011;4508;48.790;9.028;2023-01-20T13:16:12;4.57;;;3.45;;
8946;SDS011;4508;48.790;9.028;2023-01-20T13:18:47;4.40;;;3.60;;
8946;SDS011;4508;48.790;9.028;2023-01-20T13:21:19;4.35;;;3.25;;
8946;SDS011;4508;48.790;9.028;2023-01-20T13:23:46;5.22;;;3.47;;
8946;SDS011;4508;48.790;9.028;2023-01-20T13:26:14;4.97;;;3.47;;
8946;SDS011;4508;48.790;9.028;2023-01-20T13:28:50;4.50;;;3.50;;
8946;SDS011;4508;48.790;9.028;2023-01-20T13:31:28;4.43;;;4.03;;
8946;SDS011;4508;48.790;9.028;2023-01-20T13:39:42;4.53;;;3.40;;
8946;SDS011;4508;48.790;9.028;2023-01-20T13:45:14;4.67;;;3.90;;
8946;SDS011;4508;48.790;9.028;2023-01-20T13:50:32;4.28;;;3.88;;
8946;SDS011;4508;48.790;9.028;2023-01-20T13:53:12;5.37;;;3.80;;
8946;SDS011;4508;48.790;9.028;2023-01-20T13:55:54;4.15;;;3.70;;
8946;SDS011;4508;48.790;9.028;2023-01-20T13:58:23;4.45;;;3.90;;
8946;SDS011;4508;48.790;9.028;2023-01-20T14:00:53;4.55;;;3.80;;
8946;SDS011;4508;48.790;9.028;2023-01-20T14:03:23;4.63;;;3.95;;
8946;SDS011;4508;48.790;9.028;2023-01-20T14:05:53;5.38;;;3.90;;
8946;SDS011;4508;48.790;9.028;2023-01-20T14:08:22;4.30;;;3.90;;
8946;SDS011;4508;48.790;9.028;2023-01-20T14:10:50;4.40;;;3.80;;
8946;SDS011;4508;48.790;9.028;2023-01-20T14:13:18;4.20;;;3.80;;
8946;SDS011;4508;48.790;9.028;2023-01-20T14:15:50;5.17;;;3.70;;
8946;SDS011;4508;48.790;9.028;2023-01-20T14:18:21;4.47;;;4.07;;
8946;SDS011;4508;48.790;9.028;2023-01-20T14:21:00;5.07;;;4.10;;
8946;SDS011;4508;48.790;9.028;2023-01-20T14:23:31;5.18;;;4.10;;
8946;SDS011;4508;48.790;9.028;2023-01-20T14:26:06;4.10;;;3.38;;
8946;SDS011;4508;48.790;9.028;2023-01-20T14:28:39;4.30;;;3.60;;
8946;SDS011;4508;48.790;9.028;2023-01-20T14:34:02;5.60;;;4.28;;
8946;SDS011;4508;48.790;9.028;2023-01-20T14:36:44;6.50;;;5.80;;
8946;SDS011;4508;48.790;9.028;2023-01-20T14:39:15;3.72;;;2.85;;
8946;SDS011;4508;48.790;9.028;2023-01-20T14:41:46;3.30;;;2.63;;
8946;SDS011;4508;48.790;9.028;2023-01-20T14:44:15;4.50;;;3.00;;
8946;SDS011;4508;48.790;9.028;2023-01-20T14:46:45;3.85;;;3.10;;
8946;SDS011;4508;48.790;9.028;2023-01-20T14:49:14;4.90;;;3.15;;
8946;SDS011;4508;48.790;9.028;2023-01-20T14:51:42;4.47;;;3.30;;
8946;SDS011;4508;48.790;9.028;2023-01-20T14:54:25;5.15;;;3.00;;
8946;SDS011;4508;48.790;9.028;2023-01-20T14:56:58;4.07;;;2.80;;
8946;SDS011;4508;48.790;9.028;2023-01-20T14:59:41;5.78;;;3.30;;
8946;SDS011;4508;48.790;9.028;2023-01-20T15:02:13;4.60;;;3.33;;
8946;SDS011;4508;48.790;9.028;2023-01-20T15:04:43;4.13;;;3.73;;
8946;SDS011;4508;48.790;9.028;2023-01-20T15:07:13;4.88;;;4.15;;
8946;SDS011;4508;48.790;9.028;2023-01-20T15:09:49;4.47;;;3.22;;
8946;SDS011;4508;48.790;9.028;2023-01-20T15:12:32;6.45;;;3.20;;
8946;SDS011;4508;48.790;9.028;2023-01-20T15:15:11;4.35;;;2.80;;
8946;SDS011;4508;48.790;9.028;2023-01-20T15:20:43;4.45;;;3.40;;
8946;SDS011;4508;48.790;9.028;2023-01-20T15:23:13;4.17;;;3.47;;
8946;SDS011;4508;48.790;9.028;2023-01-20T15:25:43;6.10;;;3.58;;
8946;SDS011;4508;48.790;9.028;2023-01-20T15:28:25;4.68;;;3.97;;
8946;SDS011;4508;48.790;9.028;2023-01-20T15:30:54;5.10;;;3.72;;
8946;SDS011;4508;48.790;9.028;2023-01-20T15:33:24;5.25;;;3.80;;
8946;SDS011;4508;48.790;9.028;2023-01-20T15:35:52;5.50;;;4.00;;
8946;SDS011;4508;48.790;9.028;2023-01-20T15:38:19;4.25;;;3.85;;
8946;SDS011;4508;48.790;9.028;2023-01-20T15:40:46;4.93;;;3.90;;
8946;SDS011;4508;48.790;9.028;2023-01-20T15:43:14;5.50;;;4.55;;
8946;SDS011;4508;48.790;9.028;2023-01-20T15:45:41;6.32;;;5.00;;
8946;SDS011;4508;48.790;9.028;2023-01-20T15:48:11;6.30;;;5.38;;
8946;SDS011;4508;48.790;9.028;2023-01-20T15:50:41;5.97;;;5.38;;
8946;SDS011;4508;48.790;9.028;2023-01-20T15:53:08;5.35;;;4.85;;
8946;SDS011;4508;48.790;9.028;2023-01-20T15:55:35;7.10;;;5.03;;
8946;SDS011;4508;48.790;9.028;2023-01-20T15:58:08;5.68;;;4.47;;
8946;SDS011;4508;48.790;9.028;2023-01-20T16:00:44;5.75;;;4.50;;
8946;SDS011;4508;48.790;9.028;2023-01-20T16:03:13;4.40;;;4.00;;
8946;SDS011;4508;48.790;9.028;2023-01-20T16:05:40;4.95;;;4.20;;
8946;SDS011;4508;48.790;9.028;2023-01-20T16:08:10;4.82;;;4.22;;